createdAt,value
2018-03-08T00:00:04.996Z,72.63
2018-03-08T00:01:04.983Z,73.2
2018-03-08T00:02:04.972Z,72.34
2018-03-08T00:03:04.952Z,72.34
2018-03-08T00:04:04.937Z,72.82
2018-03-08T00:05:04.916Z,72.53
2018-03-08T00:06:04.901Z,73.2
2018-03-08T00:07:04.887Z,73.2
2018-03-08T00:08:04.869Z,73.01
2018-03-08T00:09:04.598Z,73.01
2018-03-08T00:10:04.837Z,71.5
2018-03-08T00:11:04.823Z,69.79
2018-03-08T00:12:04.806Z,67.24
2018-03-08T00:13:04.792Z,66.38
2018-03-08T00:14:04.775Z,65.25
2018-03-08T00:15:04.757Z,64.01
2018-03-08T00:16:04.742Z,62.31
2018-03-08T00:17:04.465Z,61.46
2018-03-08T00:18:04.722Z,60.1
2018-03-08T00:19:04.766Z,60.03
2018-03-08T00:20:04.674Z,59.28
2018-03-08T00:21:04.400Z,58.71
2018-03-08T00:22:04.641Z,57.95
2018-03-08T00:23:04.631Z,56.88
2018-03-08T00:24:04.611Z,56.34
2018-03-08T00:25:04.600Z,56.82
2018-03-08T00:26:04.577Z,56.91
2018-03-08T00:27:04.564Z,57.2
2018-03-08T00:28:04.547Z,56.72
2018-03-08T00:29:04.529Z,56.53
2018-03-08T00:30:04.255Z,55.37
2018-03-08T00:31:04.502Z,55.58
2018-03-08T00:32:04.498Z,54.93
2018-03-08T00:33:04.470Z,54.8
2018-03-08T00:34:04.449Z,55.18
2018-03-08T00:35:04.437Z,55.3
2018-03-08T00:36:04.417Z,55.58
2018-03-08T00:37:04.407Z,55.94
2018-03-08T00:38:04.385Z,56.34
2018-03-08T00:39:04.367Z,56.91
2018-03-08T00:40:04.352Z,57.39
2018-03-08T00:41:04.081Z,57.29
2018-03-08T00:42:04.322Z,57.86
2018-03-08T00:43:04.313Z,58.71
2018-03-08T00:44:04.028Z,58.59
2018-03-08T00:45:04.014Z,59.09
2018-03-08T00:46:04.254Z,59.28
2018-03-08T00:47:04.238Z,59.53
2018-03-08T00:48:03.960Z,59.47
2018-03-08T00:49:04.204Z,60.32
2018-03-08T00:50:04.192Z,60.58
2018-03-08T00:51:04.172Z,60.67
2018-03-08T00:52:04.157Z,61.83
2018-03-08T00:53:04.136Z,62.69
2018-03-08T00:54:04.128Z,63.64
2018-03-08T00:55:04.106Z,63.64
2018-03-08T00:56:04.091Z,63.54
2018-03-08T00:57:04.074Z,63.73
2018-03-08T00:58:04.058Z,64.77
2018-03-08T00:59:04.049Z,65.15
2018-03-08T01:00:04.024Z,65.15
2018-03-08T01:01:04.012Z,65.69
2018-03-08T01:02:03.991Z,65.44
2018-03-08T01:03:03.980Z,65.53
2018-03-08T01:04:03.983Z,66.19
2018-03-08T01:05:03.945Z,66.38
2018-03-08T01:06:03.926Z,66.38
2018-03-08T01:07:03.915Z,66.47
2018-03-08T01:08:03.965Z,66.57
2018-03-08T01:09:03.881Z,67.52
2018-03-08T01:10:03.603Z,67.52
2018-03-08T01:11:03.844Z,67.39
2018-03-08T01:12:03.833Z,68.56
2018-03-08T01:13:03.813Z,68.65
2018-03-08T01:14:03.800Z,69.51
2018-03-08T01:15:03.786Z,69.6
2018-03-08T01:16:03.766Z,69.98
2018-03-08T01:17:03.748Z,70.83
2018-03-08T01:18:03.730Z,70.93
2018-03-08T01:19:03.718Z,71.31
2018-03-08T01:20:03.697Z,71.88
2018-03-08T01:21:03.683Z,71.97
2018-03-08T01:22:03.407Z,72.82
2018-03-08T01:23:03.395Z,73.01
2018-03-08T01:24:03.632Z,72.82
2018-03-08T01:25:03.623Z,72.82
2018-03-08T01:26:03.603Z,73.2
2018-03-08T01:27:03.586Z,73.01
2018-03-08T01:28:03.571Z,72.44
2018-03-08T01:29:03.554Z,72.82
2018-03-08T01:30:03.534Z,73.01
2018-03-08T01:31:03.518Z,73.01
2018-03-08T01:32:03.509Z,72.82
2018-03-08T01:33:03.236Z,73.49
2018-03-08T01:34:03.472Z,73.58
2018-03-08T01:35:03.458Z,73.58
2018-03-08T01:36:03.442Z,73.3
2018-03-08T01:37:03.166Z,73.11
2018-03-08T01:38:03.420Z,72.63
2018-03-08T01:39:03.134Z,72.25
2018-03-08T01:40:03.382Z,72.82
2018-03-08T01:41:03.358Z,72.25
2018-03-08T01:42:03.341Z,72.53
2018-03-08T01:43:03.323Z,72.16
2018-03-08T01:44:03.317Z,72.34
2018-03-08T01:45:03.359Z,71.88
2018-03-08T01:46:03.279Z,71.59
2018-03-08T01:47:03.004Z,71.4
2018-03-08T01:48:02.994Z,70.83
2018-03-08T01:49:03.230Z,71.21
2018-03-08T01:50:03.217Z,71.4
2018-03-08T01:51:03.199Z,71.21
2018-03-08T01:52:02.927Z,71.02
2018-03-08T01:53:02.911Z,70.83
2018-03-08T01:54:03.151Z,71.02
2018-03-08T01:55:02.879Z,70.74
2018-03-08T01:56:03.120Z,70.74
2018-03-08T01:57:02.843Z,70.93
2018-03-08T01:58:02.827Z,70.83
2018-03-08T01:59:02.811Z,70.45
2018-03-08T02:00:03.054Z,70.17
2018-03-08T02:01:02.778Z,69.98
2018-03-08T02:02:03.024Z,70.36
2018-03-08T02:03:02.746Z,70.07
2018-03-08T02:04:02.991Z,70.07
2018-03-08T02:05:02.978Z,70.17
2018-03-08T02:06:02.698Z,69.79
2018-03-08T02:07:02.945Z,69.6
2018-03-08T02:08:02.927Z,68.94
2018-03-08T02:09:02.651Z,68.65
2018-03-08T02:10:02.895Z,68.56
2018-03-08T02:11:02.874Z,68.08
2018-03-08T02:12:02.859Z,67.8
2018-03-08T02:13:02.844Z,68.08
2018-03-08T02:14:02.828Z,67.52
2018-03-08T02:15:02.864Z,67.05
2018-03-08T02:16:02.803Z,66.76
2018-03-08T02:17:02.779Z,66.47
2018-03-08T02:18:02.502Z,66.47
2018-03-08T02:19:02.743Z,66.38
2018-03-08T02:20:02.735Z,65.72
2018-03-08T02:21:02.457Z,65.53
2018-03-08T02:22:02.696Z,65.53
2018-03-08T02:23:02.680Z,64.96
2018-03-08T02:24:02.668Z,64.58
2018-03-08T02:25:02.649Z,64.96
2018-03-08T02:26:02.636Z,63.92
2018-03-08T02:27:02.620Z,63.92
2018-03-08T02:28:02.599Z,63.64
2018-03-08T02:29:02.583Z,63.45
2018-03-08T02:30:02.329Z,63.73
2018-03-08T02:31:02.562Z,63.16
2018-03-08T02:32:02.540Z,62.59
2018-03-08T02:33:02.521Z,62.21
2018-03-08T02:34:02.507Z,61.74
2018-03-08T02:35:02.510Z,61.36
2018-03-08T02:36:02.219Z,60.8
2018-03-08T02:37:02.467Z,61.27
2018-03-08T02:38:02.445Z,60.61
2018-03-08T02:39:02.428Z,60.51
2018-03-08T02:40:02.416Z,60.22
2018-03-08T02:41:02.397Z,59.94
2018-03-08T02:42:02.120Z,60.13
2018-03-08T02:43:02.368Z,60.41
2018-03-08T02:44:02.095Z,59.94
2018-03-08T02:45:02.333Z,59.94
2018-03-08T02:46:02.056Z,59.84
2018-03-08T02:47:02.295Z,59.38
2018-03-08T02:48:02.023Z,59.38
2018-03-08T02:49:02.271Z,59.56
2018-03-08T02:50:02.251Z,59.09
2018-03-08T02:51:01.976Z,59.19
2018-03-08T02:52:02.220Z,59
2018-03-08T02:53:02.206Z,59.09
2018-03-08T02:54:02.188Z,58.9
2018-03-08T02:55:02.169Z,59
2018-03-08T02:56:01.894Z,59.09
2018-03-08T02:57:02.138Z,59
2018-03-08T02:58:02.117Z,59.09
2018-03-08T02:59:01.850Z,59.38
2018-03-08T03:00:02.087Z,59.28
2018-03-08T03:01:01.813Z,59.66
2018-03-08T03:02:02.057Z,59.47
2018-03-08T03:03:02.043Z,60
2018-03-08T03:04:01.769Z,59.56
2018-03-08T03:05:01.784Z,60.03
2018-03-08T03:06:01.997Z,59.38
2018-03-08T03:07:01.973Z,60.32
2018-03-08T03:08:01.959Z,59.94
2018-03-08T03:09:01.945Z,60.32
2018-03-08T03:10:02.049Z,59.38
2018-03-08T03:11:01.913Z,60.03
2018-03-08T03:12:01.644Z,60.41
2018-03-08T03:13:01.623Z,60.41
2018-03-08T03:14:01.862Z,60.41
2018-03-08T03:15:01.591Z,59.66
2018-03-08T03:16:01.832Z,59.75
2018-03-08T03:17:01.838Z,59.38
2018-03-08T03:18:01.540Z,59.38
2018-03-08T03:19:01.525Z,59.38
2018-03-08T03:20:01.762Z,59.84
2018-03-08T03:21:01.491Z,60.22
2018-03-08T03:22:01.728Z,59.94
2018-03-08T03:23:01.723Z,59.94
2018-03-08T03:24:01.705Z,59.47
2018-03-08T03:25:01.686Z,59.38
2018-03-08T03:26:01.665Z,59.47
2018-03-08T03:27:01.393Z,59.47
2018-03-08T03:28:01.646Z,59.38
2018-03-08T03:29:01.617Z,59.38
2018-03-08T03:30:01.347Z,59.38
2018-03-08T03:31:01.593Z,59.47
2018-03-08T03:32:01.567Z,59.28
2018-03-08T03:33:01.557Z,59.56
2018-03-08T03:34:01.282Z,59.75
2018-03-08T03:35:01.522Z,59.38
2018-03-08T03:36:01.250Z,59.94
2018-03-08T03:37:01.236Z,60.51
2018-03-08T03:38:01.475Z,59.28
2018-03-08T03:39:01.461Z,59.84
2018-03-08T03:40:01.442Z,60.41
2018-03-08T03:41:01.427Z,60.32
2018-03-08T03:42:01.415Z,60.48
2018-03-08T03:43:01.403Z,60.89
2018-03-08T03:44:01.377Z,61.08
2018-03-08T03:45:01.363Z,61.65
2018-03-08T03:46:01.087Z,61.83
2018-03-08T03:47:01.332Z,61.65
2018-03-08T03:48:01.314Z,61.65
2018-03-08T03:49:01.296Z,61.46
2018-03-08T03:50:01.281Z,61.08
2018-03-08T03:51:01.008Z,61.18
2018-03-08T03:52:01.249Z,61.18
2018-03-08T03:53:01.231Z,61.18
2018-03-08T03:54:01.216Z,61.55
2018-03-08T03:55:00.941Z,62.59
2018-03-08T03:56:01.189Z,63.35
2018-03-08T03:57:00.913Z,63.16
2018-03-08T03:58:01.149Z,63.26
2018-03-08T03:59:01.137Z,63.35
2018-03-08T04:00:01.121Z,63.35
2018-03-08T04:01:01.104Z,63.26
2018-03-08T04:02:01.089Z,62.94
2018-03-08T04:03:01.073Z,62.78
2018-03-08T04:04:01.110Z,62.5
2018-03-08T04:05:01.043Z,62.02
2018-03-08T04:06:01.026Z,61.74
2018-03-08T04:07:01.011Z,61.18
2018-03-08T04:08:00.989Z,60.8
2018-03-08T04:09:00.981Z,61.46
2018-03-08T04:10:00.960Z,61.46
2018-03-08T04:11:00.965Z,61.27
2018-03-08T04:12:00.669Z,60.89
2018-03-08T04:13:00.913Z,60.61
2018-03-08T04:14:00.899Z,60.89
2018-03-08T04:15:00.881Z,60.51
2018-03-08T04:16:00.864Z,60.32
2018-03-08T04:17:00.847Z,60.13
2018-03-08T04:18:00.583Z,60.77
2018-03-08T04:19:00.554Z,59.94
2018-03-08T04:20:00.799Z,60.32
2018-03-08T04:21:00.782Z,60.38
2018-03-08T04:22:00.507Z,59.53
2018-03-08T04:23:00.745Z,59.63
2018-03-08T04:24:00.732Z,59.38
2018-03-08T04:25:00.458Z,59.25
2018-03-08T04:26:00.709Z,59.06
2018-03-08T04:27:00.684Z,58.81
2018-03-08T04:28:00.676Z,58.52
2018-03-08T04:29:00.653Z,58.05
2018-03-08T04:30:00.639Z,58.02
2018-03-08T04:31:00.360Z,57.95
2018-03-08T04:32:00.345Z,57.83
2018-03-08T04:33:00.592Z,57.45
2018-03-08T04:34:00.571Z,57.45
2018-03-08T04:35:00.298Z,57.35
2018-03-08T04:36:00.540Z,56.98
2018-03-08T04:37:00.521Z,57.07
2018-03-08T04:38:00.504Z,56.98
2018-03-08T04:39:00.231Z,57.17
2018-03-08T04:40:00.471Z,56.88
2018-03-08T04:41:00.455Z,56.7
2018-03-08T04:42:00.444Z,56.13
2018-03-08T04:43:00.168Z,56.32
2018-03-08T04:44:00.152Z,56.32
2018-03-08T04:45:00.394Z,56.32
2018-03-08T04:46:00.373Z,56.22
2018-03-08T04:47:00.361Z,56.22
2018-03-08T04:48:00.353Z,56.13
2018-03-08T04:49:00.444Z,56.41
2018-03-08T04:50:00.056Z,56.51
2018-03-08T04:51:00.297Z,56.22
2018-03-08T04:52:00.283Z,56.51
2018-03-08T04:53:00.258Z,56.6
2018-03-08T04:53:59.988Z,56.98
2018-03-08T04:55:00.231Z,57.07
2018-03-08T04:56:00.213Z,56.88
2018-03-08T04:57:00.196Z,57.17
2018-03-08T04:58:00.183Z,56.7
2018-03-08T04:59:00.164Z,56.88
2018-03-08T04:59:59.888Z,57.17
2018-03-08T05:00:59.874Z,56.51
2018-03-08T05:02:00.111Z,57.17
2018-03-08T05:03:00.098Z,56.7
2018-03-08T05:04:00.086Z,57.17
2018-03-08T05:05:00.064Z,56.51
2018-03-08T05:06:00.048Z,56.6
2018-03-08T05:07:00.032Z,56.51
2018-03-08T05:07:59.765Z,56.41
2018-03-08T05:08:59.742Z,56.51
2018-03-08T05:09:59.990Z,55.75
2018-03-08T05:10:59.709Z,55.94
2018-03-08T05:11:59.953Z,55.84
2018-03-08T05:12:59.935Z,55.84
2018-03-08T05:13:59.917Z,55.84
2018-03-08T05:14:59.902Z,55.75
2018-03-08T05:15:59.635Z,55.75
2018-03-08T05:16:59.612Z,55.65
2018-03-08T05:17:59.594Z,55.46
2018-03-08T05:18:59.841Z,54.99
2018-03-08T05:19:59.817Z,54.99
2018-03-08T05:20:59.803Z,54.9
2018-03-08T05:21:59.789Z,54.52
2018-03-08T05:22:59.772Z,54.14
2018-03-08T05:23:59.758Z,54.14
2018-03-08T05:24:59.742Z,53.66
2018-03-08T05:25:59.463Z,54.04
2018-03-08T05:26:59.705Z,53.85
2018-03-08T05:27:59.693Z,53.85
2018-03-08T05:28:59.413Z,53.95
2018-03-08T05:29:59.662Z,54.04
2018-03-08T05:30:59.656Z,54.14
2018-03-08T05:31:59.366Z,54.04
2018-03-08T05:32:59.346Z,54.04
2018-03-08T05:33:59.590Z,53.76
2018-03-08T05:34:59.581Z,54.14
2018-03-08T05:35:59.300Z,53.38
2018-03-08T05:36:59.282Z,53.66
2018-03-08T05:37:59.522Z,53.76
2018-03-08T05:38:59.510Z,54.04
2018-03-08T05:39:59.514Z,54.04
2018-03-08T05:40:59.472Z,54.14
2018-03-08T05:41:59.199Z,54.14
2018-03-08T05:42:59.186Z,54.23
2018-03-08T05:43:59.424Z,54.04
2018-03-08T05:44:59.414Z,54.52
2018-03-08T05:45:59.136Z,54.33
2018-03-08T05:46:59.378Z,54.14
2018-03-08T05:47:59.361Z,54.61
2018-03-08T05:48:59.086Z,54.9
2018-03-08T05:49:59.069Z,55.37
2018-03-08T05:50:59.311Z,55.37
2018-03-08T05:51:59.300Z,55.27
2018-03-08T05:52:59.279Z,55.27
2018-03-08T05:53:59.265Z,55.08
2018-03-08T05:54:59.252Z,55.37
2018-03-08T05:55:59.386Z,56.32
2018-03-08T05:56:59.208Z,56.6
2018-03-08T05:57:59.195Z,56.98
2018-03-08T05:58:59.175Z,56.98
2018-03-08T05:59:59.160Z,57.07
2018-03-08T06:00:59.146Z,57.54
2018-03-08T06:01:59.132Z,57.35
2018-03-08T06:02:59.112Z,57.64
2018-03-08T06:03:59.093Z,58.02
2018-03-08T06:04:58.822Z,58.3
2018-03-08T06:05:58.805Z,57.83
2018-03-08T06:06:59.042Z,58.68
2018-03-08T06:07:59.031Z,59.16
2018-03-08T06:08:59.012Z,58.78
2018-03-08T06:09:58.998Z,59.25
2018-03-08T06:10:58.981Z,59.34
2018-03-08T06:11:58.710Z,60.86
2018-03-08T06:12:58.947Z,61.52
2018-03-08T06:13:58.673Z,62.18
2018-03-08T06:14:58.911Z,62.56
2018-03-08T06:15:58.896Z,63.04
2018-03-08T06:16:58.881Z,63.6
2018-03-08T06:17:58.864Z,64.17
2018-03-08T06:18:58.854Z,63.98
2018-03-08T06:19:58.827Z,63.7
2018-03-08T06:20:58.815Z,64.93
2018-03-08T06:21:58.800Z,64.93
2018-03-08T06:22:58.784Z,65.59
2018-03-08T06:23:58.506Z,66.73
2018-03-08T06:24:58.749Z,66.35
2018-03-08T06:25:58.474Z,66.53
2018-03-08T06:26:58.715Z,66.16
2018-03-08T06:27:58.701Z,67.58
2018-03-08T06:28:58.684Z,68.62
2018-03-08T06:29:58.670Z,69.19
2018-03-08T06:30:58.650Z,69.47
2018-03-08T06:31:58.635Z,69.09
2018-03-08T06:32:58.621Z,69
2018-03-08T06:33:58.346Z,69.57
2018-03-08T06:34:58.589Z,70.23
2018-03-08T06:35:58.312Z,71.55
2018-03-08T06:36:58.294Z,71.93
2018-03-08T06:37:58.533Z,72.41
2018-03-08T06:38:58.582Z,72.78
2018-03-08T06:39:58.500Z,72.31
2018-03-08T06:40:58.228Z,73.45
2018-03-08T06:41:58.473Z,73.92
2018-03-08T06:42:58.198Z,74.3
2018-03-08T06:43:58.442Z,75.34
2018-03-08T06:44:58.422Z,76.29
2018-03-08T06:45:58.148Z,76.29
2018-03-08T06:46:58.130Z,76.76
2018-03-08T06:47:58.373Z,76.95
2018-03-08T06:48:58.354Z,77.33
2018-03-08T06:49:58.082Z,77.94
2018-03-08T06:50:58.327Z,78.56
2018-03-08T06:51:58.079Z,78.18
2018-03-08T06:52:58.288Z,78.18
2018-03-08T06:53:58.278Z,78.08
2018-03-08T06:54:58.008Z,77.33
2018-03-08T06:55:57.986Z,76.86
2018-03-08T06:56:58.226Z,76.76
2018-03-08T06:57:58.210Z,76.48
2018-03-08T06:58:58.192Z,75.62
2018-03-08T06:59:58.180Z,75.34
2018-03-08T07:00:57.908Z,74.87
2018-03-08T07:01:57.886Z,74.49
2018-03-08T07:02:57.872Z,74.49
2018-03-08T07:03:57.850Z,75.53
2018-03-08T07:04:57.836Z,76.48
2018-03-08T07:05:58.079Z,77.7
2018-03-08T07:06:58.062Z,79.41
2018-03-08T07:07:57.790Z,79.6
2018-03-08T07:08:58.027Z,81.3
2018-03-08T07:09:58.016Z,80.26
2018-03-08T07:10:57.739Z,80.45
2018-03-08T07:11:57.985Z,79.22
2018-03-08T07:12:57.967Z,79.41
2018-03-08T07:13:57.949Z,79.13
2018-03-08T07:14:57.930Z,79.41
2018-03-08T07:15:57.914Z,79.69
2018-03-08T07:16:57.899Z,78.85
2018-03-08T07:17:57.880Z,79.88
2018-03-08T07:18:57.866Z,81.68
2018-03-08T07:19:57.593Z,81.96
2018-03-08T07:20:57.579Z,81.87
2018-03-08T07:21:57.815Z,81.3
2018-03-08T07:22:57.800Z,81.02
2018-03-08T07:23:57.524Z,82.15
2018-03-08T07:24:57.763Z,85.66
2018-03-08T07:25:57.750Z,88.35
2018-03-08T07:26:57.737Z,89.01
2018-03-08T07:27:57.458Z,89.58
2018-03-08T07:28:57.697Z,91.38
2018-03-08T07:29:57.690Z,92.61
2018-03-08T07:30:57.669Z,91.48
2018-03-08T07:31:57.653Z,93.46
2018-03-08T07:32:57.639Z,94.79
2018-03-08T07:33:57.630Z,95.07
2018-03-08T07:34:57.603Z,94.79
2018-03-08T07:35:57.586Z,96.31
2018-03-08T07:36:57.312Z,95.55
2018-03-08T07:37:57.558Z,96.78
2018-03-08T07:38:57.535Z,97.25
2018-03-08T07:39:57.564Z,97.73
2018-03-08T07:40:57.508Z,99.99
2018-03-08T07:41:57.488Z,99.24
2018-03-08T07:42:57.216Z,99.24
2018-03-08T07:43:57.473Z,98.96
2018-03-08T07:44:57.450Z,98.96
2018-03-08T07:45:57.427Z,99.24
2018-03-08T07:46:57.414Z,99.15
2018-03-08T07:47:57.395Z,99.99
2018-03-08T07:48:57.378Z,99.99
2018-03-08T07:49:57.106Z,99.71
2018-03-08T07:50:57.354Z,98.58
2018-03-08T07:51:57.333Z,98.68
2018-03-08T07:52:57.060Z,99.81
2018-03-08T07:53:57.298Z,99.99
2018-03-08T07:54:57.286Z,99.99
2018-03-08T07:55:57.018Z,99.99
2018-03-08T07:56:56.993Z,99.96
2018-03-08T07:57:57.245Z,99.77
2018-03-08T07:58:57.224Z,99.71
2018-03-08T07:59:57.206Z,99.99
2018-03-08T08:00:57.190Z,99.99
2018-03-08T08:01:57.177Z,99.99
2018-03-08T08:02:56.904Z,99.05
2018-03-08T08:03:57.146Z,99.39
2018-03-08T08:04:56.872Z,99.99
2018-03-08T08:05:57.111Z,99.99
2018-03-08T08:06:57.104Z,99.99
2018-03-08T08:07:57.090Z,99.99
2018-03-08T08:08:56.813Z,99.99
2018-03-08T08:09:57.054Z,99.99
2018-03-08T08:10:57.037Z,99.99
2018-03-08T08:11:57.023Z,99.99
2018-03-08T08:12:57.008Z,99.99
2018-03-08T08:13:56.731Z,99.99
2018-03-08T08:14:56.984Z,99.99
2018-03-08T08:15:57.098Z,99.99
2018-03-08T08:16:56.945Z,99.99
2018-03-08T08:17:56.933Z,99.99
2018-03-08T08:18:56.661Z,99.99
2018-03-08T08:19:56.641Z,99.99
2018-03-08T08:20:56.664Z,99.99
2018-03-08T08:21:56.874Z,99.99
2018-03-08T08:22:56.854Z,99.99
2018-03-08T08:23:56.837Z,99.99
2018-03-08T08:24:56.821Z,99.99
2018-03-08T08:25:56.809Z,99.99
2018-03-08T08:26:56.537Z,99.99
2018-03-08T08:27:56.520Z,99.99
2018-03-08T08:28:56.762Z,99.99
2018-03-08T08:29:56.748Z,99.99
2018-03-08T08:30:56.733Z,99.99
2018-03-08T08:31:56.719Z,99.99
2018-03-08T08:32:56.704Z,99.99
2018-03-08T08:33:56.685Z,99.99
2018-03-08T08:34:56.675Z,99.99
2018-03-08T08:35:56.401Z,99.99
2018-03-08T08:36:56.387Z,99.99
2018-03-08T08:37:56.630Z,99.99
2018-03-08T08:38:56.614Z,99.99
2018-03-08T08:39:56.343Z,99.99
2018-03-08T08:40:56.593Z,99.99
2018-03-08T08:41:56.579Z,99.99
2018-03-08T08:42:56.297Z,99.99
2018-03-08T08:43:56.540Z,99.99
2018-03-08T08:44:56.524Z,99.99
2018-03-08T08:45:56.514Z,99.99
2018-03-08T08:46:56.493Z,99.99
2018-03-08T08:47:56.477Z,99.99
2018-03-08T08:48:56.462Z,99.99
2018-03-08T08:49:56.451Z,99.99
2018-03-08T08:50:56.178Z,99.99
2018-03-08T08:51:56.163Z,99.99
2018-03-08T08:52:56.410Z,99.99
2018-03-08T08:53:56.394Z,99.99
2018-03-08T08:54:56.118Z,99.99
2018-03-08T08:55:56.364Z,99.99
2018-03-08T08:56:56.347Z,99.99
2018-03-08T08:57:56.334Z,99.99
2018-03-08T08:58:56.326Z,99.99
2018-03-08T08:59:56.307Z,99.99
2018-03-08T09:00:56.290Z,99.99
2018-03-08T09:01:56.276Z,99.99
2018-03-08T09:02:56.262Z,99.99
2018-03-08T09:03:56.244Z,99.99
2018-03-08T09:04:56.231Z,99.99
2018-03-08T09:05:56.228Z,99.99
2018-03-08T09:06:56.204Z,99.99
2018-03-08T09:07:55.930Z,99.99
2018-03-08T09:08:56.172Z,99.99
2018-03-08T09:09:56.157Z,99.99
2018-03-08T09:10:56.143Z,99.99
2018-03-08T09:11:56.129Z,99.99
2018-03-08T09:12:56.113Z,99.99
2018-03-08T09:13:55.842Z,99.99
2018-03-08T09:14:56.087Z,99.99
2018-03-08T09:15:56.072Z,99.99
2018-03-08T09:16:55.795Z,99.99
2018-03-08T09:17:56.043Z,99.99
2018-03-08T09:18:56.029Z,99.99
2018-03-08T09:19:55.752Z,99.99
2018-03-08T09:20:55.999Z,99.99
2018-03-08T09:21:55.984Z,99.99
2018-03-08T09:22:55.708Z,99.99
2018-03-08T09:23:55.951Z,99.99
2018-03-08T09:24:55.934Z,99.99
2018-03-08T09:25:55.930Z,99.99
2018-03-08T09:26:55.647Z,99.99
2018-03-08T09:27:55.634Z,99.99
2018-03-08T09:28:55.877Z,99.99
2018-03-08T09:29:55.863Z,99.99
2018-03-08T09:30:55.844Z,99.99
2018-03-08T09:31:55.830Z,99.99
2018-03-08T09:32:55.819Z,99.99
2018-03-08T09:33:55.873Z,99.99
2018-03-08T09:34:55.530Z,99.99
2018-03-08T09:35:55.771Z,99.99
2018-03-08T09:36:55.755Z,99.99
2018-03-08T09:37:55.747Z,99.99
2018-03-08T09:38:55.722Z,99.99
2018-03-08T09:39:55.452Z,99.99
2018-03-08T09:40:55.701Z,99.99
2018-03-08T09:41:55.683Z,99.99
2018-03-08T09:42:55.670Z,99.99
2018-03-08T09:43:55.660Z,99.99
2018-03-08T09:44:55.640Z,99.99
2018-03-08T09:45:55.617Z,99.99
2018-03-08T09:46:55.612Z,99.99
2018-03-08T09:47:55.337Z,99.99
2018-03-08T09:48:55.579Z,99.99
2018-03-08T09:49:55.576Z,99.99
2018-03-08T09:50:55.547Z,99.99
2018-03-08T09:51:55.535Z,99.99
2018-03-08T09:52:55.259Z,99.99
2018-03-08T09:53:55.243Z,99.99
2018-03-08T09:54:55.490Z,99.99
2018-03-08T09:55:55.472Z,99.99
2018-03-08T09:56:55.459Z,99.99
2018-03-08T09:57:55.445Z,99.99
2018-03-08T09:58:55.500Z,99.99
2018-03-08T09:59:55.415Z,99.99
2018-03-08T10:00:55.400Z,99.99
2018-03-08T10:01:55.125Z,99.99
2018-03-08T10:02:55.367Z,99.99
2018-03-08T10:03:55.100Z,99.99
2018-03-08T10:04:55.081Z,99.99
2018-03-08T10:05:55.326Z,99.99
2018-03-08T10:06:55.058Z,99.99
2018-03-08T10:07:55.041Z,99.99
2018-03-08T10:08:55.281Z,99.99
2018-03-08T10:09:55.269Z,99.99
2018-03-08T10:10:55.252Z,99.99
2018-03-08T10:11:55.241Z,99.99
2018-03-08T10:12:55.296Z,99.99
2018-03-08T10:13:54.953Z,99.99
2018-03-08T10:14:55.198Z,99.99
2018-03-08T10:15:54.929Z,99.99
2018-03-08T10:16:55.172Z,99.99
2018-03-08T10:17:55.151Z,99.99
2018-03-08T10:18:54.880Z,99.99
2018-03-08T10:19:54.868Z,99.99
2018-03-08T10:20:55.110Z,99.99
2018-03-08T10:21:55.095Z,99.99
2018-03-08T10:22:55.083Z,99.99
2018-03-08T10:23:55.068Z,99.99
2018-03-08T10:24:55.055Z,99.99
2018-03-08T10:25:55.035Z,99.99
2018-03-08T10:26:55.023Z,99.99
2018-03-08T10:27:55.010Z,99.99
2018-03-08T10:28:54.736Z,99.99
2018-03-08T10:29:54.981Z,99.99
2018-03-08T10:30:54.964Z,99.99
2018-03-08T10:31:54.949Z,99.99
2018-03-08T10:32:54.934Z,99.99
2018-03-08T10:33:54.920Z,99.99
2018-03-08T10:34:54.907Z,99.99
2018-03-08T10:35:54.894Z,99.99
2018-03-08T10:36:54.878Z,99.99
2018-03-08T10:37:54.608Z,99.99
2018-03-08T10:38:54.852Z,99.99
2018-03-08T10:39:54.832Z,99.99
2018-03-08T10:40:54.831Z,99.99
2018-03-08T10:41:54.552Z,99.99
2018-03-08T10:42:54.796Z,99.99
2018-03-08T10:43:54.786Z,99.99
2018-03-08T10:44:54.765Z,99.99
2018-03-08T10:45:54.752Z,99.99
2018-03-08T10:46:54.737Z,99.99
2018-03-08T10:47:54.523Z,99.99
2018-03-08T10:49:02.494Z,99.99
2018-03-08T10:49:54.694Z,99.99
2018-03-08T10:50:54.685Z,99.99
2018-03-08T10:51:54.669Z,99.99
2018-03-08T10:52:54.657Z,99.99
2018-03-08T10:53:54.642Z,99.99
2018-03-08T10:54:54.373Z,99.99
2018-03-08T10:55:54.615Z,99.99
2018-03-08T10:56:54.602Z,99.99
2018-03-08T10:57:54.590Z,99.99
2018-03-08T10:58:54.573Z,99.99
2018-03-08T10:59:54.567Z,99.99
2018-03-08T11:00:54.550Z,99.99
2018-03-08T11:01:54.537Z,99.99
2018-03-08T11:02:54.523Z,99.99
2018-03-08T11:03:54.254Z,99.99
2018-03-08T11:04:54.241Z,99.99
2018-03-08T11:05:54.488Z,99.99
2018-03-08T11:06:54.213Z,99.99
2018-03-08T11:07:54.460Z,99.99
2018-03-08T11:08:54.446Z,99.4
2018-03-08T11:09:54.434Z,99.11
2018-03-08T11:10:54.419Z,99.99
2018-03-08T11:11:54.405Z,99.99
2018-03-08T11:12:54.395Z,99.99
2018-03-08T11:13:54.382Z,99.99
2018-03-08T11:14:54.371Z,98.73
2018-03-08T11:15:54.356Z,97.97
2018-03-08T11:16:54.342Z,99.11
2018-03-08T11:17:54.075Z,98.92
2018-03-08T11:18:54.317Z,98.26
2018-03-08T11:19:54.306Z,98.73
2018-03-08T11:20:54.295Z,97.92
2018-03-08T11:21:54.282Z,98.4
2018-03-08T11:22:54.271Z,99.92
2018-03-08T11:23:53.998Z,99.83
2018-03-08T11:24:54.247Z,99.73
2018-03-08T11:25:53.974Z,97.36
2018-03-08T11:26:54.220Z,99.99
2018-03-08T11:27:54.202Z,99.73
2018-03-08T11:28:54.193Z,99.99
2018-03-08T11:29:54.188Z,97.92
2018-03-08T11:30:54.165Z,96.98
2018-03-08T11:31:53.897Z,97.36
2018-03-08T11:32:54.143Z,98.31
2018-03-08T11:33:54.127Z,98.59
2018-03-08T11:34:54.118Z,99.54
2018-03-08T11:35:54.104Z,99.99
2018-03-08T11:36:54.095Z,99.99
2018-03-08T11:37:54.081Z,98.4
2018-03-08T11:38:54.065Z,98.79
2018-03-08T11:39:54.058Z,98.92
2018-03-08T11:40:54.045Z,99.99
2018-03-08T11:41:54.030Z,99.77
2018-03-08T11:42:55.301Z,99.99
2018-03-08T11:43:54.015Z,99.99
2018-03-08T11:44:53.735Z,99.99
2018-03-08T11:45:53.981Z,99.99
2018-03-08T11:46:53.967Z,99.99
2018-03-08T11:47:53.700Z,99.99
2018-03-08T11:48:53.943Z,99.99
2018-03-08T11:49:53.934Z,99.99
2018-03-08T11:50:53.917Z,99.99
2018-03-08T11:51:53.911Z,99.99
2018-03-08T11:52:53.638Z,99.99
2018-03-08T11:53:53.888Z,99.99
2018-03-08T11:54:54.039Z,99.99
2018-03-08T11:55:53.855Z,99.99
2018-03-08T11:56:53.586Z,99.99
2018-03-08T11:57:53.833Z,99.99
2018-03-08T11:58:53.561Z,99.99
2018-03-08T11:59:53.803Z,99.99
2018-03-08T12:00:53.797Z,99.99
2018-03-08T12:01:53.525Z,99.99
2018-03-08T12:02:53.513Z,99.99
2018-03-08T12:03:53.499Z,99.99
2018-03-08T12:04:53.746Z,99.99
2018-03-08T12:05:53.767Z,99.99
2018-03-08T12:06:53.463Z,99.99
2018-03-08T12:07:53.707Z,99.99
2018-03-08T12:08:53.690Z,99.99
2018-03-08T12:09:53.677Z,99.99
2018-03-08T12:10:53.666Z,99.99
2018-03-08T12:11:53.664Z,99.99
2018-03-08T12:12:53.642Z,99.99
2018-03-08T12:13:53.625Z,99.99
2018-03-08T12:14:53.615Z,99.99
2018-03-08T12:15:53.605Z,99.99
2018-03-08T12:16:53.754Z,99.99
2018-03-08T12:17:53.668Z,99.99
2018-03-08T12:18:53.564Z,99.99
2018-03-08T12:19:53.558Z,98.69
2018-03-08T12:20:53.548Z,97.92
2018-03-08T12:21:53.270Z,99.07
2018-03-08T12:22:53.261Z,99.83
2018-03-08T12:23:53.248Z,99.99
2018-03-08T12:24:53.491Z,99.99
2018-03-08T12:25:53.226Z,99.99
2018-03-08T12:26:53.469Z,99.83
2018-03-08T12:27:53.453Z,99.64
2018-03-08T12:28:53.441Z,99.99
2018-03-08T12:29:53.437Z,99.73
2018-03-08T12:30:53.162Z,98.88
2018-03-08T12:31:53.409Z,98.79
2018-03-08T12:32:53.395Z,98.69
2018-03-08T12:33:53.128Z,98.69
2018-03-08T12:34:53.372Z,98.79
2018-03-08T12:35:53.101Z,98.4
2018-03-08T12:36:53.345Z,99.16
2018-03-08T12:37:53.338Z,99.99
2018-03-08T12:38:53.323Z,99.99
2018-03-08T12:39:53.310Z,99.99
2018-03-08T12:40:53.299Z,99.99
2018-03-08T12:41:53.293Z,99.99
2018-03-08T12:42:53.271Z,99.99
2018-03-08T12:43:53.265Z,99.99
2018-03-08T12:44:53.247Z,99.99
2018-03-08T12:45:52.981Z,99.99
2018-03-08T12:46:52.969Z,97.5
2018-03-08T12:47:52.958Z,96.31
2018-03-08T12:48:53.242Z,95.75
2018-03-08T12:49:53.192Z,97.07
2018-03-08T12:50:53.177Z,97.55
2018-03-08T12:51:52.909Z,97.36
2018-03-08T12:52:53.152Z,97.17
2018-03-08T12:53:53.139Z,98.21